Terminal Aerodrome Forecast
Issued by NWS

Home | Current Version | Previous Version | Text Only | Print | Product List | Glossary On
Versions: 1 2 3 4 5 6 7 8 9 10 11 12 13 14 15 16 17 18 19
000
FTUS44 KCRP 211100
TAFLRD
TAF
KLRD 211130Z 2112/2212 VRB04KT 6SM BR OVC005
     FM211500 14006KT P6SM OVC015
     FM211800 18006KT P6SM OVC035
     FM212200 17006KT P6SM SCT025
     FM220800 18004KT 5SM BR OVC012=

USA.gov is the U.S. government's official web portal to all federal, state and local government web resources and services.